Time;durP1;ratioP1;P1;durP2;ratioP2;P2;SDS_P1;SDS_P2;PMS_P1;PMS_P2;Temp;Humidity;BMP_temperature;BMP_pressure;BME280_temperature;BME280_humidity;BME280_pressure;Samples;Min_cycle;Max_cycle;Signal;HPM_P1;HPM_P2
2023/05/30 00:00:27;;;;;;;6.70;3.53;;;;;;;18.83;nan;99546.06;4965345;28;20252;-80
2023/05/30 00:02:53;;;;;;;4.60;3.33;;;;;;;18.74;nan;99542.47;4967766;28;20474;-80
2023/05/30 00:05:20;;;;;;;5.17;3.70;;;;;;;18.67;nan;99535.22;4965939;28;20567;-80
2023/05/30 00:07:46;;;;;;;4.53;2.90;;;;;;;18.61;nan;99539.31;4966808;28;20588;-80
2023/05/30 00:10:12;;;;;;;4.53;3.20;;;;;;;18.60;nan;99536.81;4966559;28;20565;-80
2023/05/30 00:12:40;;;;;;;9.83;3.53;;;;;;;18.59;nan;99535.97;4967828;28;20247;-80
2023/05/30 00:15:06;;;;;;;4.90;3.33;;;;;;;18.58;nan;99534.31;4967267;28;20481;-80
2023/05/30 00:17:32;;;;;;;4.43;3.83;;;;;;;18.55;nan;99534.59;4967129;28;20681;-80
2023/05/30 00:19:59;;;;;;;4.40;3.63;;;;;;;18.50;nan;99532.41;4969442;28;21289;-81
2023/05/30 00:22:25;;;;;;;4.17;3.67;;;;;;;18.46;nan;99530.19;4968316;28;20479;-80
2023/05/30 00:24:51;;;;;;;6.00;4.90;;;;;;;18.42;nan;99534.97;4969004;28;20480;-80
2023/05/30 00:27:17;;;;;;;8.50;4.30;;;;;;;18.39;nan;99529.09;4971116;28;20490;-80
2023/05/30 00:29:45;;;;;;;4.83;3.83;;;;;;;18.35;nan;99529.41;4971448;28;20488;-79
2023/05/30 00:32:11;;;;;;;5.87;4.00;;;;;;;18.33;nan;99530.53;4953604;28;21032;-80
2023/05/30 00:34:36;;;;;;;9.65;4.03;;;;;;;18.33;nan;99531.41;4969169;28;20443;-81
2023/05/30 00:37:05;;;;;;;5.33;3.70;;;;;;;18.34;nan;99532.22;4969030;28;20282;-80
2023/05/30 00:39:31;;;;;;;4.57;4.07;;;;;;;18.34;nan;99527.75;4963009;28;20467;-80
2023/05/30 00:41:57;;;;;;;5.23;3.10;;;;;;;18.36;nan;99535.53;4952910;28;20632;-80
2023/05/30 00:44:22;;;;;;;7.33;4.23;;;;;;;18.37;nan;99531.09;4951735;28;20489;-80
2023/05/30 00:46:50;;;;;;;6.40;4.33;;;;;;;18.38;nan;99532.75;4969774;28;20227;-80
2023/05/30 00:49:17;;;;;;;4.13;3.27;;;;;;;18.37;nan;99528.44;4952445;28;20219;-80
2023/05/30 00:51:43;;;;;;;6.27;4.37;;;;;;;18.37;nan;99536.41;4962246;28;20464;-80
2023/05/30 00:54:08;;;;;;;5.37;4.00;;;;;;;18.35;nan;99529.41;4970486;28;20460;-81
2023/05/30 00:56:34;;;;;;;5.23;4.30;;;;;;;18.34;nan;99533.06;4970910;28;20247;-80
2023/05/30 00:59:00;;;;;;;6.33;4.37;;;;;;;18.33;nan;99530.53;4971678;28;20249;-80
2023/05/30 01:01:26;;;;;;;7.23;4.27;;;;;;;18.34;nan;99532.22;4968017;28;20211;-81
2023/05/30 01:03:52;;;;;;;6.60;4.50;;;;;;;18.31;nan;99545.81;4970883;28;20552;-80
2023/05/30 01:06:20;;;;;;;6.90;4.32;;;;;;;18.32;nan;99545.66;4967866;28;20585;-80
2023/05/30 01:08:47;;;;;;;7.00;4.50;;;;;;;18.29;nan;99543.28;4950431;28;20235;-80
2023/05/30 01:11:26;;;;;;;7.50;3.97;;;;;;;18.28;nan;99543.44;4966426;28;20481;-81
2023/05/30 01:14:22;;;;;;;4.80;3.60;;;;;;;18.24;nan;99550.88;4950224;28;20566;-80
2023/05/30 01:16:54;;;;;;;4.30;3.30;;;;;;;18.23;nan;99554.53;4948686;28;20842;-81
2023/05/30 01:19:23;;;;;;;5.30;3.90;;;;;;;18.09;nan;99555.88;4967468;28;21346;-80
2023/05/30 01:21:57;;;;;;;7.50;3.77;;;;;;;18.09;nan;99553.22;4967171;28;20567;-80
2023/05/30 01:24:34;;;;;;;6.50;4.40;;;;;;;18.06;nan;99557.97;4965766;28;20473;-80
2023/05/30 01:27:21;;;;;;;5.00;3.90;;;;;;;18.01;nan;99557.56;4947284;28;20920;-81
2023/05/30 01:29:49;;;;;;;5.47;3.37;;;;;;;17.98;nan;99560.50;4939593;28;20477;-80
2023/05/30 01:32:16;;;;;;;4.77;4.00;;;;;;;17.94;nan;99564.47;4938898;28;20523;-80
2023/05/30 01:34:41;;;;;;;4.50;4.00;;;;;;;17.91;nan;99558.44;4921235;28;21025;-80
2023/05/30 01:37:07;;;;;;;8.70;4.93;;;;;;;17.92;nan;99560.13;4938601;28;20825;-80
2023/05/30 01:39:32;;;;;;;5.90;3.83;;;;;;;17.93;nan;99560.97;4943545;28;20474;-80
2023/05/30 01:42:16;;;;;;;4.57;3.70;;;;;;;17.90;nan;99556.78;4941669;28;20222;-80
2023/05/30 01:44:55;;;;;;;5.27;3.80;;;;;;;17.84;nan;99569.81;4924416;28;20238;-81
2023/05/30 01:47:31;;;;;;;7.40;4.70;;;;;;;17.79;nan;99567.56;4943506;28;20559;-80
2023/05/30 01:50:23;;;;;;;6.20;4.53;;;;;;;17.77;nan;99560.69;4923306;28;20963;-80
2023/05/30 01:52:57;;;;;;;4.73;3.60;;;;;;;17.78;nan;99570.34;4916318;28;20488;-80
2023/05/30 01:55:25;;;;;;;10.23;4.87;;;;;;;17.80;nan;99565.78;4940863;28;20475;-81
2023/05/30 01:57:52;;;;;;;6.80;4.07;;;;;;;17.78;nan;99575.66;4929391;28;20573;-81
2023/05/30 02:00:24;;;;;;;4.97;4.03;;;;;;;17.78;nan;99579.16;4936039;28;20472;-81
2023/05/30 02:02:50;;;;;;;5.07;3.73;;;;;;;17.77;nan;99577.50;4946804;28;21182;-80
2023/05/30 02:05:15;;;;;;;7.28;4.65;;;;;;;17.68;nan;99581.81;4947779;28;20459;-81
2023/05/30 02:07:41;;;;;;;6.70;3.73;;;;;;;17.63;nan;99577.94;4946597;28;20238;-80
2023/05/30 02:10:09;;;;;;;5.73;5.20;;;;;;;17.53;nan;99577.13;4928443;28;20238;-80
2023/05/30 02:12:35;;;;;;;8.80;5.20;;;;;;;17.41;nan;99584.41;4928393;28;20481;-81
2023/05/30 02:15:00;;;;;;;6.13;4.80;;;;;;;17.36;nan;99582.19;4946072;28;20471;-80
2023/05/30 02:17:26;;;;;;;5.90;4.77;;;;;;;17.31;nan;99575.59;4944933;28;20230;-80
2023/05/30 02:19:52;;;;;;;6.30;5.70;;;;;;;17.22;nan;99572.00;4945707;28;20232;-80
2023/05/30 02:22:18;;;;;;;6.30;4.57;;;;;;;17.16;nan;99577.88;4947055;28;20510;-80
2023/05/30 02:24:44;;;;;;;6.00;4.63;;;;;;;17.10;nan;99581.94;4924629;28;20235;-80
2023/05/30 02:27:10;;;;;;;5.33;4.60;;;;;;;17.08;nan;99585.69;4945567;28;20508;-80
2023/05/30 02:29:36;;;;;;;7.10;4.43;;;;;;;17.06;nan;99587.66;4951791;28;20886;-80
2023/05/30 02:32:02;;;;;;;8.37;4.07;;;;;;;17.03;nan;99584.28;4968442;28;20466;-80
2023/05/30 02:34:27;;;;;;;7.97;4.60;;;;;;;16.99;nan;99598.00;4951301;28;20824;-80
2023/05/30 02:36:53;;;;;;;5.60;3.93;;;;;;;16.88;nan;99596.31;4968409;28;20470;-83
2023/05/30 02:39:18;;;;;;;10.30;6.47;;;;;;;16.79;nan;99599.78;4950309;28;20211;-81
2023/05/30 02:41:44;;;;;;;5.20;3.97;;;;;;;16.75;nan;99595.69;4949729;28;20638;-80
2023/05/30 02:44:09;;;;;;;9.00;4.23;;;;;;;16.70;nan;99593.44;4949582;28;20230;-81
2023/05/30 02:46:35;;;;;;;6.20;4.20;;;;;;;16.62;nan;99595.13;4966147;28;20236;-80
2023/05/30 02:49:01;;;;;;;4.43;3.93;;;;;;;16.41;nan;99600.50;4951569;28;20227;-80
2023/05/30 02:51:27;;;;;;;8.90;4.90;;;;;;;16.41;nan;99603.16;4949546;28;20469;-80
2023/05/30 02:53:53;;;;;;;5.33;4.80;;;;;;;16.39;nan;99595.34;4949787;28;20477;-80
2023/05/30 02:56:27;;;;;;;7.90;3.80;;;;;;;16.42;nan;99605.69;4950210;28;20224;-80
2023/05/30 02:59:09;;;;;;;9.50;5.00;;;;;;;16.45;nan;99601.91;4951710;28;20227;-80
2023/05/30 03:01:47;;;;;;;10.30;5.30;;;;;;;16.43;nan;99610.00;4966263;28;21056;-80
2023/05/30 03:04:13;;;;;;;7.03;4.77;;;;;;;16.43;nan;99604.69;4949760;28;20469;-80
2023/05/30 03:06:42;;;;;;;6.78;5.45;;;;;;;16.49;nan;99614.75;4947883;28;20453;-80
2023/05/30 03:09:29;;;;;;;5.73;4.03;;;;;;;16.49;nan;99614.75;4948958;28;20243;-80
2023/05/30 03:11:54;;;;;;;6.60;5.43;;;;;;;16.51;nan;99611.97;4959845;28;20833;-80
2023/05/30 03:14:20;;;;;;;8.93;5.03;;;;;;;16.52;nan;99614.47;4965419;28;20308;-80
2023/05/30 03:16:45;;;;;;;7.20;4.10;;;;;;;16.53;nan;99612.69;4949142;28;20219;-80
2023/05/30 03:19:14;;;;;;;7.33;4.57;;;;;;;16.51;nan;99612.81;4952091;28;20262;-80
2023/05/30 03:21:40;;;;;;;9.90;4.13;;;;;;;16.51;nan;99615.47;4947339;28;20851;-80
2023/05/30 03:24:06;;;;;;;6.00;4.50;;;;;;;16.54;nan;99619.66;4950170;28;20219;-80
2023/05/30 03:26:37;;;;;;;5.15;4.65;;;;;;;16.55;nan;99624.84;4949230;28;20480;-80
2023/05/30 03:29:03;;;;;;;9.37;4.63;;;;;;;16.56;nan;99629.16;4955522;23;20660;-80
2023/05/30 03:31:29;;;;;;;6.60;4.83;;;;;;;16.56;nan;99633.63;4923136;28;21010;-83
2023/05/30 03:33:55;;;;;;;10.05;4.60;;;;;;;16.53;nan;99628.59;4934908;28;20216;-81
2023/05/30 03:36:22;;;;;;;5.90;3.50;;;;;;;16.49;nan;99630.66;4944069;28;20217;-82
2023/05/30 03:38:47;;;;;;;8.10;5.33;;;;;;;16.47;nan;99635.28;4942907;28;20251;-81
2023/05/30 03:41:14;;;;;;;11.57;4.47;;;;;;;16.43;nan;99636.50;4938246;28;20694;-83
2023/05/30 03:43:39;;;;;;;14.13;6.23;;;;;;;16.41;nan;99629.66;4938491;28;20453;-81
2023/05/30 03:46:04;;;;;;;8.53;5.30;;;;;;;16.39;nan;99635.13;4939944;28;20231;-81
2023/05/30 03:48:31;;;;;;;7.40;4.53;;;;;;;16.40;nan;99634.13;4941167;28;20589;-82
2023/05/30 03:50:56;;;;;;;7.20;4.73;;;;;;;16.41;nan;99632.31;4943387;28;20530;-81
2023/05/30 03:53:21;;;;;;;6.37;3.93;;;;;;;16.42;nan;99631.31;4943481;28;20228;-83
2023/05/30 03:55:47;;;;;;;4.67;4.17;;;;;;;16.43;nan;99630.38;4942142;28;20224;-79
2023/05/30 03:58:12;;;;;;;5.93;3.87;;;;;;;16.42;nan;99631.31;4958924;28;20208;-81
2023/05/30 04:00:38;;;;;;;5.33;4.47;;;;;;;16.36;nan;99638.88;4959611;28;20220;-80
2023/05/30 04:03:03;;;;;;;5.57;4.10;;;;;;;16.31;nan;99638.44;4957814;28;21162;-81
2023/05/30 04:05:29;;;;;;;10.70;5.30;;;;;;;16.32;nan;99639.25;4959887;28;20740;-81
2023/05/30 04:07:54;;;;;;;9.60;4.27;;;;;;;16.26;nan;99640.63;4960053;28;20231;-82
2023/05/30 04:10:20;;;;;;;8.00;5.57;;;;;;;16.29;nan;99644.84;4960936;28;20319;-83
2023/05/30 04:12:45;;;;;;;5.00;4.00;;;;;;;16.27;nan;99634.34;4943693;28;20719;-81
2023/05/30 04:15:13;;;;;;;5.57;4.63;;;;;;;16.30;nan;99634.06;4961937;28;20228;-80
2023/05/30 04:17:40;;;;;;;8.27;5.03;;;;;;;16.32;nan;99644.56;4942694;28;20213;-79
2023/05/30 04:20:08;;;;;;;8.55;4.47;;;;;;;16.34;nan;99646.09;4957751;28;20254;-79
2023/05/30 04:22:35;;;;;;;4.25;3.53;;;;;;;16.40;nan;99643.91;4939427;28;20235;-81
2023/05/30 04:25:01;;;;;;;10.63;5.03;;;;;;;16.44;nan;99646.13;4958114;28;20420;-81
2023/05/30 04:27:27;;;;;;;6.50;4.23;;;;;;;16.43;nan;99647.13;4957104;28;20337;-81
2023/05/30 04:29:53;;;;;;;6.03;4.50;;;;;;;16.46;nan;99657.44;4961460;28;20242;-81
2023/05/30 04:32:20;;;;;;;9.00;4.45;;;;;;;16.49;nan;99649.22;4976525;28;20476;-80
2023/05/30 04:34:46;;;;;;;5.82;3.95;;;;;;;16.55;nan;99651.34;4993917;28;20224;-81
2023/05/30 04:37:17;;;;;;;7.85;4.70;;;;;;;16.64;nan;99654.16;4976592;28;20258;-81
2023/05/30 04:39:44;;;;;;;5.22;4.10;;;;;;;16.72;nan;99654.31;4975953;28;20788;-82
2023/05/30 04:42:10;;;;;;;8.18;4.68;;;;;;;16.75;nan;99662.00;4976750;28;20525;-78
2023/05/30 04:44:38;;;;;;;17.90;4.97;;;;;;;16.87;nan;99663.59;4976224;28;20218;-80
2023/05/30 04:47:10;;;;;;;5.87;3.53;;;;;;;17.02;nan;99669.34;4976400;28;20241;-80
2023/05/30 04:49:41;;;;;;;4.53;3.47;;;;;;;17.20;nan;99664.19;4976969;28;20474;-83
2023/05/30 04:52:07;;;;;;;9.27;4.80;;;;;;;17.39;nan;99664.22;4993183;28;20222;-83
2023/05/30 04:54:33;;;;;;;7.97;3.80;;;;;;;17.63;nan;99669.09;4979351;28;20609;-80
2023/05/30 04:57:02;;;;;;;8.23;4.27;;;;;;;17.92;nan;99663.75;4977162;28;20267;-80
2023/05/30 04:59:27;;;;;;;5.53;4.50;;;;;;;18.29;nan;99670.94;4976587;28;20520;-81
2023/05/30 05:01:53;;;;;;;3.87;3.40;;;;;;;18.72;nan;99673.97;4978602;28;20228;-79
2023/05/30 05:04:19;;;;;;;5.40;4.43;;;;;;;19.16;nan;99671.47;4978009;28;20279;-83
2023/05/30 05:06:44;;;;;;;6.70;4.63;;;;;;;19.57;nan;99664.69;4979311;28;20521;-81
2023/05/30 05:09:11;;;;;;;7.80;4.03;;;;;;;19.93;nan;99678.00;4981414;28;20216;-82
2023/05/30 05:11:36;;;;;;;6.33;4.50;;;;;;;20.19;nan;99677.97;4979991;28;20210;-80
2023/05/30 05:14:02;;;;;;;7.93;3.77;;;;;;;20.22;nan;99675.00;4982276;28;20533;-80
2023/05/30 05:16:27;;;;;;;5.73;3.93;;;;;;;20.23;nan;99681.19;4979878;28;20297;-80
2023/05/30 05:18:53;;;;;;;5.20;3.33;;;;;;;20.21;nan;99676.00;4979133;28;20310;-80
2023/05/30 05:21:18;;;;;;;10.10;4.30;;;;;;;20.11;nan;99676.09;4979590;28;20214;-80
2023/05/30 05:23:43;;;;;;;7.47;4.10;;;;;;;20.05;nan;99675.91;4979919;28;20211;-79
2023/05/30 05:26:09;;;;;;;5.27;3.43;;;;;;;20.08;nan;99676.41;4979446;28;20320;-79
2023/05/30 05:28:34;;;;;;;7.33;3.80;;;;;;;20.24;nan;99673.00;4978710;28;20210;-80
2023/05/30 05:31:00;;;;;;;5.57;3.40;;;;;;;20.39;nan;99675.94;4978398;28;20208;-80
2023/05/30 05:33:25;;;;;;;7.20;4.30;;;;;;;20.52;nan;99679.00;4983073;28;20207;-82
2023/05/30 05:35:50;;;;;;;6.30;4.47;;;;;;;20.74;nan;99680.28;4982893;28;20428;-80
2023/05/30 05:38:16;;;;;;;6.80;3.57;;;;;;;20.95;nan;99687.88;4983667;28;20296;-84
2023/05/30 05:40:42;;;;;;;8.20;3.63;;;;;;;21.26;nan;99684.59;4985914;28;20213;-81
2023/05/30 05:43:08;;;;;;;3.80;3.40;;;;;;;21.58;nan;99683.00;4986835;28;20213;-80
2023/05/30 05:45:33;;;;;;;6.10;3.80;;;;;;;21.92;nan;99684.63;4984387;28;20469;-82
2023/05/30 05:48:00;;;;;;;4.20;3.80;;;;;;;22.29;nan;99679.56;4985407;28;20597;-80
2023/05/30 05:50:25;;;;;;;4.93;3.67;;;;;;;22.53;nan;99680.50;4983794;28;20218;-82
2023/05/30 05:52:51;;;;;;;4.90;4.30;;;;;;;22.70;nan;99683.94;4986408;28;20465;-80
2023/05/30 05:55:16;;;;;;;4.40;3.00;;;;;;;22.81;nan;99691.59;4984562;28;20259;-80
2023/05/30 05:57:41;;;;;;;3.63;3.30;;;;;;;23.01;nan;99691.19;4983558;28;20676;-80
2023/05/30 06:00:08;;;;;;;5.70;3.90;;;;;;;23.21;nan;99688.91;4981095;28;20226;-79
2023/05/30 06:02:40;;;;;;;9.10;4.10;;;;;;;23.32;nan;99691.19;4982050;28;20679;-80
2023/05/30 06:05:06;;;;;;;4.40;3.47;;;;;;;23.46;nan;99692.25;4981232;28;20454;-81
2023/05/30 06:07:33;;;;;;;9.97;3.33;;;;;;;23.55;nan;99691.19;4982026;28;20705;-80
2023/05/30 06:09:58;;;;;;;5.20;3.73;;;;;;;23.66;nan;99688.09;4981579;28;20478;-83
2023/05/30 06:12:23;;;;;;;6.60;3.43;;;;;;;23.76;nan;99691.38;4982404;28;20468;-81
2023/05/30 06:14:49;;;;;;;8.40;3.13;;;;;;;23.71;nan;99698.25;4981103;28;20259;-80
2023/05/30 06:17:15;;;;;;;4.83;3.30;;;;;;;23.49;nan;99706.13;4982779;28;20236;-81
2023/05/30 06:19:40;;;;;;;7.97;3.70;;;;;;;23.42;nan;99700.66;4981556;28;20216;-83
2023/05/30 06:22:05;;;;;;;4.83;3.83;;;;;;;23.32;nan;99704.56;4981199;28;20209;-79
2023/05/30 06:24:31;;;;;;;5.60;3.37;;;;;;;23.27;nan;99701.59;4979910;28;20700;-81
2023/05/30 06:26:56;;;;;;;7.23;3.60;;;;;;;23.32;nan;99702.72;4981748;28;20320;-80
2023/05/30 06:29:22;;;;;;;5.33;3.27;;;;;;;23.30;nan;99701.22;4980638;28;20244;-83
2023/05/30 06:31:47;;;;;;;6.83;3.70;;;;;;;23.27;nan;99702.41;4980661;28;20204;-80
2023/05/30 06:34:12;;;;;;;5.23;3.30;;;;;;;23.31;nan;99698.38;4982446;28;20645;-80
2023/05/30 06:36:38;;;;;;;5.50;3.20;;;;;;;23.54;nan;99697.53;4981748;28;20272;-80
2023/05/30 06:39:03;;;;;;;7.20;3.40;;;;;;;23.72;nan;99706.16;4979591;28;20214;-80
2023/05/30 06:41:29;;;;;;;4.90;3.30;;;;;;;23.88;nan;99709.72;4975988;28;20715;-83
2023/05/30 06:43:54;;;;;;;8.43;3.83;;;;;;;23.91;nan;99714.72;4974838;28;20215;-80
2023/05/30 06:46:20;;;;;;;5.63;4.60;;;;;;;24.05;nan;99717.41;4976451;28;20290;-80
2023/05/30 06:48:46;;;;;;;8.00;4.10;;;;;;;24.32;nan;99717.00;4977582;28;20220;-79
2023/05/30 06:51:14;;;;;;;6.33;3.60;;;;;;;24.54;nan;99717.97;4977109;28;20223;-81
2023/05/30 06:53:40;;;;;;;4.80;2.97;;;;;;;24.75;nan;99717.22;4975237;28;21122;-80
2023/05/30 06:56:07;;;;;;;7.33;4.13;;;;;;;24.68;nan;99723.34;4976466;28;20612;-79
2023/05/30 06:58:32;;;;;;;5.03;4.03;;;;;;;24.59;nan;99720.94;4976639;28;22020;-80
2023/05/30 07:00:57;;;;;;;6.23;4.20;;;;;;;24.55;nan;99725.84;4976354;28;20204;-82
2023/05/30 07:03:24;;;;;;;6.70;3.83;;;;;;;24.65;nan;99721.00;4978739;28;20196;-81
2023/05/30 07:05:49;;;;;;;7.03;3.88;;;;;;;24.67;nan;99718.16;4974977;28;20942;-81
2023/05/30 07:08:15;;;;;;;10.80;4.30;;;;;;;24.66;nan;99713.81;4978098;28;20543;-82
2023/05/30 07:10:40;;;;;;;7.20;3.53;;;;;;;24.58;nan;99724.66;4976771;28;20278;-81
2023/05/30 07:13:06;;;;;;;5.13;3.30;;;;;;;24.48;nan;99720.38;4977072;28;20206;-81
2023/05/30 07:15:31;;;;;;;5.70;3.13;;;;;;;24.27;nan;99715.69;4979169;28;20408;-84
2023/05/30 07:17:57;;;;;;;8.20;3.70;;;;;;;24.12;nan;99724.75;4978157;28;20776;-82
2023/05/30 07:20:23;;;;;;;4.20;3.73;;;;;;;23.94;nan;99720.53;4976472;28;20645;-83
2023/05/30 07:22:50;;;;;;;5.60;3.50;;;;;;;23.83;nan;99716.44;4977529;28;20533;-82
2023/05/30 07:25:15;;;;;;;5.40;3.10;;;;;;;23.83;nan;99721.81;4976406;28;20269;-82
2023/05/30 07:27:41;;;;;;;5.40;3.60;;;;;;;23.96;nan;99720.38;4973770;28;20455;-87
2023/05/30 07:30:07;;;;;;;5.87;3.40;;;;;;;23.90;nan;99723.75;4980289;28;20229;-82
2023/05/30 07:32:32;;;;;;;6.30;3.97;;;;;;;23.78;nan;99721.53;4978734;28;20188;-83
2023/05/30 07:34:58;;;;;;;4.87;3.60;;;;;;;23.81;nan;99723.84;4979313;28;21383;-81
2023/05/30 07:37:23;;;;;;;6.80;4.10;;;;;;;24.03;nan;99726.66;4976982;28;20670;-81
2023/05/30 07:39:49;;;;;;;6.03;3.97;;;;;;;24.22;nan;99718.13;4979156;28;20252;-81
2023/05/30 07:42:14;;;;;;;5.93;3.57;;;;;;;24.31;nan;99713.50;4976840;28;20697;-81
2023/05/30 07:44:39;;;;;;;3.43;3.13;;;;;;;24.34;nan;99720.34;4977642;28;20707;-84
2023/05/30 07:47:05;;;;;;;5.30;3.77;;;;;;;24.45;nan;99706.50;4977838;28;20392;-80
2023/05/30 07:49:33;;;;;;;3.90;3.27;;;;;;;24.51;nan;99708.44;4977638;28;20718;-81
2023/05/30 07:51:59;;;;;;;4.37;3.20;;;;;;;24.59;nan;99707.50;4978709;28;20430;-83
2023/05/30 07:54:24;;;;;;;4.87;3.40;;;;;;;24.61;nan;99708.97;4977115;28;20441;-80
2023/05/30 07:56:50;;;;;;;11.70;4.47;;;;;;;24.65;nan;99704.91;4975619;28;20686;-80
2023/05/30 07:59:16;;;;;;;7.70;4.63;;;;;;;24.63;nan;99703.44;4976264;28;20623;-82
2023/05/30 08:01:41;;;;;;;5.60;4.00;;;;;;;24.59;nan;99702.97;4978320;28;20464;-82
2023/05/30 08:04:07;;;;;;;9.73;4.50;;;;;;;24.51;nan;99692.31;4984561;28;20218;-82
2023/05/30 08:06:34;;;;;;;8.23;4.37;;;;;;;24.28;nan;99700.44;4982201;28;20213;-81
2023/05/30 08:09:00;;;;;;;7.80;2.80;;;;;;;24.11;nan;99704.28;4978886;28;20275;-80
2023/05/30 08:11:26;;;;;;;9.40;4.00;;;;;;;24.07;nan;99711.88;4977569;28;20827;-81
2023/05/30 08:13:52;;;;;;;7.37;4.07;;;;;;;24.10;nan;99705.31;4975111;28;20580;-81
2023/05/30 08:16:18;;;;;;;6.13;4.00;;;;;;;23.90;nan;99708.53;4975930;28;20487;-82
2023/05/30 08:18:45;;;;;;;6.43;5.40;;;;;;;23.78;nan;99709.97;4976601;28;20482;-81
2023/05/30 08:21:11;;;;;;;8.60;4.00;;;;;;;23.81;nan;99704.22;4974992;28;20788;-79
2023/05/30 08:23:37;;;;;;;5.60;4.50;;;;;;;23.88;nan;99707.03;4975535;28;20445;-81
2023/05/30 08:26:02;;;;;;;7.53;4.50;;;;;;;23.83;nan;99694.16;4973776;28;20476;-81
2023/05/30 08:28:28;;;;;;;7.27;3.80;;;;;;;23.88;nan;99699.81;4976159;28;20689;-79
2023/05/30 08:30:53;;;;;;;4.63;4.13;;;;;;;23.86;nan;99696.47;4959389;28;20260;-82
2023/05/30 08:33:21;;;;;;;10.07;3.87;;;;;;;23.76;nan;99690.53;4959697;28;20713;-80
2023/05/30 08:35:46;;;;;;;7.80;4.03;;;;;;;23.75;nan;99689.69;4957267;28;20819;-82
2023/05/30 08:38:12;;;;;;;5.10;3.60;;;;;;;23.75;nan;99700.44;4958430;28;20217;-81
2023/05/30 08:40:43;;;;;;;9.73;4.30;;;;;;;23.80;nan;99699.91;4957544;28;20230;-82
2023/05/30 08:43:08;;;;;;;6.23;4.03;;;;;;;23.95;nan;99695.41;4959776;28;20457;-82
2023/05/30 08:45:34;;;;;;;6.20;3.90;;;;;;;24.11;nan;99690.88;4959269;28;20493;-80
2023/05/30 08:48:04;;;;;;;6.43;3.20;;;;;;;24.19;nan;99693.47;4957059;28;20489;-80
2023/05/30 08:50:31;;;;;;;6.83;3.80;;;;;;;24.26;nan;99694.41;4958328;28;20221;-81
2023/05/30 08:53:19;;;;;;;6.53;5.03;;;;;;;24.22;nan;99699.31;4957958;28;20432;-83
2023/05/30 08:56:01;;;;;;;5.63;4.13;;;;;;;24.24;nan;99699.94;4955265;28;20566;-81
2023/05/30 08:58:36;;;;;;;9.83;3.43;;;;;;;24.33;nan;99692.69;4957788;28;20467;-81
2023/05/30 09:01:02;;;;;;;12.23;4.00;;;;;;;24.44;nan;99699.47;4957116;28;20476;-81
2023/05/30 09:03:31;;;;;;;5.13;3.50;;;;;;;24.51;nan;99692.31;4958879;28;20530;-81
2023/05/30 09:05:57;;;;;;;7.95;4.35;;;;;;;24.63;nan;99687.31;4956897;28;20445;-84
2023/05/30 09:08:26;;;;;;;5.53;4.07;;;;;;;24.78;nan;99689.97;4960544;28;20486;-80
2023/05/30 09:10:53;;;;;;;9.73;3.30;;;;;;;24.78;nan;99685.44;4963837;28;20462;-82
2023/05/30 09:13:20;;;;;;;5.23;3.20;;;;;;;24.78;nan;99696.19;4964036;28;20438;-80
2023/05/30 09:15:45;;;;;;;5.80;3.30;;;;;;;24.75;nan;99691.19;4963064;28;20519;-82
2023/05/30 09:18:11;;;;;;;6.57;4.77;;;;;;;24.66;nan;99695.00;4963732;28;20566;-82
2023/05/30 09:20:38;;;;;;;4.77;3.50;;;;;;;24.65;nan;99687.94;4959349;28;20245;-81
2023/05/30 09:23:03;;;;;;;6.80;4.20;;;;;;;24.62;nan;99691.00;4962203;28;20218;-81
2023/05/30 09:26:00;;;;;;;4.03;2.90;;;;;;;24.55;nan;99679.34;4965774;28;20486;-79
2023/05/30 09:28:26;;;;;;;4.37;3.40;;;;;;;24.59;nan;99688.69;4952692;28;20237;-81
2023/05/30 09:30:56;;;;;;;5.23;3.27;;;;;;;24.60;nan;99687.66;5038850;23;20595;-77
2023/05/30 09:33:22;;;;;;;8.77;3.80;;;;;;;24.62;nan;99682.97;4996993;28;20465;-77
2023/05/30 09:35:56;;;;;;;5.55;4.13;;;;;;;24.78;nan;99685.44;5011311;28;20432;-78
2023/05/30 09:38:23;;;;;;;6.43;4.00;;;;;;;24.86;nan;99696.06;5015852;28;20240;-78
2023/05/30 09:40:55;;;;;;;13.00;4.03;;;;;;;24.87;nan;99689.69;5028175;28;20483;-78
2023/05/30 09:43:34;;;;;;;5.27;3.53;;;;;;;24.90;nan;99677.75;5036089;28;20449;-78
2023/05/30 09:46:05;;;;;;;6.93;4.03;;;;;;;25.05;nan;99678.50;5035280;28;20886;-78
2023/05/30 09:48:31;;;;;;;5.37;4.00;;;;;;;25.07;nan;99671.09;5037354;28;20463;-78
2023/05/30 09:51:00;;;;;;;4.63;4.23;;;;;;;25.09;nan;99673.63;5035173;28;20592;-78
2023/05/30 09:53:30;;;;;;;6.50;3.20;;;;;;;25.25;nan;99680.63;5036970;28;20465;-77
2023/05/30 09:55:56;;;;;;;5.83;3.27;;;;;;;25.43;nan;99678.31;5037136;28;20443;-77
2023/05/30 09:58:23;;;;;;;3.50;3.07;;;;;;;25.59;nan;99671.84;5035958;28;20831;-77
2023/05/30 10:00:53;;;;;;;8.13;3.63;;;;;;;25.55;nan;99673.28;5035578;28;20476;-78
2023/05/30 10:03:41;;;;;;;7.77;4.27;;;;;;;25.63;nan;99667.75;5037457;28;20842;-78
2023/05/30 10:06:16;;;;;;;4.50;3.43;;;;;;;25.72;nan;99673.81;5037874;28;20468;-77
2023/05/30 10:08:44;;;;;;;6.50;4.20;;;;;;;25.75;nan;99671.56;5038538;28;20641;-77
2023/05/30 10:11:10;;;;;;;7.40;5.33;;;;;;;25.70;nan;99659.72;5038022;28;20869;-78
2023/05/30 10:13:37;;;;;;;5.80;3.57;;;;;;;25.71;nan;99662.25;5037281;28;20465;-77
2023/05/30 10:16:11;;;;;;;9.47;4.17;;;;;;;25.77;nan;99653.38;5038198;28;20463;-77
2023/05/30 10:18:42;;;;;;;9.40;3.47;;;;;;;25.83;nan;99660.69;5038524;28;20472;-78
2023/05/30 10:21:11;;;;;;;6.07;3.90;;;;;;;25.88;nan;99643.97;5037802;28;20483;-77
2023/05/30 10:23:39;;;;;;;3.77;3.40;;;;;;;25.90;nan;99641.94;5036393;28;20917;-78
2023/05/30 10:26:07;;;;;;;6.03;3.43;;;;;;;25.81;nan;99640.34;5038733;28;20487;-78
2023/05/30 10:28:34;;;;;;;5.47;4.00;;;;;;;25.86;nan;99634.44;5037326;28;20480;-77
2023/05/30 10:31:03;;;;;;;4.17;3.30;;;;;;;26.01;nan;99633.28;5038381;28;20469;-77
2023/05/30 10:33:35;;;;;;;9.53;4.07;;;;;;;25.98;nan;99628.31;5037587;28;20448;-78
2023/05/30 10:36:01;;;;;;;8.00;5.17;;;;;;;26.13;nan;99628.19;5041141;28;20536;-77
2023/05/30 10:38:29;;;;;;;4.60;3.10;;;;;;;26.14;nan;99632.56;5041226;28;21196;-78
2023/05/30 10:41:02;;;;;;;4.73;3.60;;;;;;;26.17;nan;99618.69;5040141;28;20828;-78
2023/05/30 10:43:59;;;;;;;5.80;3.67;;;;;;;26.18;nan;99632.97;5040420;28;20540;-77
2023/05/30 10:46:56;;;;;;;7.27;4.00;;;;;;;26.31;nan;99632.22;5041617;28;20784;-78
2023/05/30 10:49:26;;;;;;;3.60;2.80;;;;;;;26.34;nan;99621.88;5018705;28;20562;-77
2023/05/30 10:52:06;;;;;;;4.50;3.70;;;;;;;26.31;nan;99616.06;5036499;28;20983;-78
2023/05/30 10:54:36;;;;;;;12.83;4.30;;;;;;;26.31;nan;99626.84;5038765;28;20408;-79
2023/05/30 10:57:27;;;;;;;4.13;3.73;;;;;;;26.31;nan;99608.81;5035621;28;20917;-76
2023/05/30 10:59:56;;;;;;;5.43;3.80;;;;;;;26.39;nan;99616.72;5033850;28;20536;-78
2023/05/30 11:02:38;;;;;;;6.10;3.63;;;;;;;26.54;nan;99600.44;5033533;28;20460;-78
2023/05/30 11:05:06;;;;;;;6.88;3.60;;;;;;;26.65;nan;99599.03;5035992;28;20532;-79
2023/05/30 11:07:34;;;;;;;4.23;3.67;;;;;;;26.73;nan;99598.84;5034872;28;21130;-78
2023/05/30 11:10:01;;;;;;;4.70;3.70;;;;;;;26.78;nan;99596.38;5033937;28;20546;-79
2023/05/30 11:12:30;;;;;;;5.60;3.80;;;;;;;26.76;nan;99589.53;5034732;28;20520;-78
2023/05/30 11:14:59;;;;;;;3.80;3.40;;;;;;;26.65;nan;99581.03;5035478;28;20466;-78
2023/05/30 11:17:33;;;;;;;5.07;3.27;;;;;;;26.57;nan;99581.22;5037998;28;20454;-78
2023/05/30 11:20:26;;;;;;;6.73;3.30;;;;;;;26.31;nan;99579.19;5035733;28;20488;-78
2023/05/30 11:23:01;;;;;;;4.93;3.80;;;;;;;26.34;nan;99578.78;5035367;28;20485;-78
2023/05/30 11:25:28;;;;;;;6.30;3.63;;;;;;;26.46;nan;99571.81;5040273;28;20526;-78
2023/05/30 11:28:12;;;;;;;6.77;3.80;;;;;;;26.65;nan;99566.69;5036346;28;20494;-78
2023/05/30 11:30:38;;;;;;;4.67;3.90;;;;;;;26.67;nan;99562.78;5038502;28;20482;-77
2023/05/30 11:33:08;;;;;;;3.97;3.57;;;;;;;26.72;nan;99570.25;5036504;28;20458;-78
2023/05/30 11:35:33;;;;;;;5.73;4.00;;;;;;;26.75;nan;99569.00;5041751;28;20254;-78
2023/05/30 11:38:00;;;;;;;5.83;4.00;;;;;;;26.73;nan;99560.28;5041802;28;20469;-79
2023/05/30 11:40:26;;;;;;;5.90;4.03;;;;;;;26.69;nan;99547.22;5039250;28;20211;-79
2023/05/30 11:42:52;;;;;;;6.07;3.87;;;;;;;26.73;nan;99555.72;5039973;28;20480;-78
2023/05/30 11:45:22;;;;;;;4.90;3.67;;;;;;;26.73;nan;99560.28;5038800;28;20205;-78
2023/05/30 11:47:47;;;;;;;4.57;3.60;;;;;;;26.74;nan;99568.19;5040846;28;20494;-78
2023/05/30 11:50:13;;;;;;;5.20;3.50;;;;;;;26.74;nan;99561.97;5038132;28;20580;-79
2023/05/30 11:52:39;;;;;;;5.23;3.87;;;;;;;26.70;nan;99559.66;5038536;28;20213;-78